sensor_id;sensor_type;location;lat;lon;timestamp;P1;durP1;ratioP1;P2;durP2;ratioP2
29902;SDS011;30288;50.514;9.678;2024-03-06T00:00:26;53.42;;;28.45;;
29902;SDS011;30288;50.514;9.678;2024-03-06T00:02:34;50.65;;;27.02;;
29902;SDS011;30288;50.514;9.678;2024-03-06T00:04:40;52.13;;;27.58;;
29902;SDS011;30288;50.514;9.678;2024-03-06T00:06:45;58.45;;;29.38;;
29902;SDS011;30288;50.514;9.678;2024-03-06T00:08:54;49.58;;;25.23;;
29902;SDS011;30288;50.514;9.678;2024-03-06T00:11:02;52.90;;;28.60;;
29902;SDS011;30288;50.514;9.678;2024-03-06T00:13:08;52.95;;;28.33;;
29902;SDS011;30288;50.514;9.678;2024-03-06T00:15:11;67.32;;;29.45;;
29902;SDS011;30288;50.514;9.678;2024-03-06T00:17:16;59.15;;;29.88;;
29902;SDS011;30288;50.514;9.678;2024-03-06T00:21:25;55.00;;;26.70;;
29902;SDS011;30288;50.514;9.678;2024-03-06T00:23:31;50.00;;;27.17;;
29902;SDS011;30288;50.514;9.678;2024-03-06T00:25:37;56.22;;;27.80;;
29902;SDS011;30288;50.514;9.678;2024-03-06T00:27:47;49.88;;;27.50;;
29902;SDS011;30288;50.514;9.678;2024-03-06T00:29:52;53.42;;;27.35;;
29902;SDS011;30288;50.514;9.678;2024-03-06T00:31:57;52.97;;;26.30;;
29902;SDS011;30288;50.514;9.678;2024-03-06T00:34:01;56.17;;;27.63;;
29902;SDS011;30288;50.514;9.678;2024-03-06T00:36:07;54.00;;;26.15;;
29902;SDS011;30288;50.514;9.678;2024-03-06T00:38:14;52.30;;;27.05;;
29902;SDS011;30288;50.514;9.678;2024-03-06T00:40:20;53.35;;;27.23;;
29902;SDS011;30288;50.514;9.678;2024-03-06T00:42:26;51.20;;;26.02;;
29902;SDS011;30288;50.514;9.678;2024-03-06T00:44:31;48.72;;;25.00;;
29902;SDS011;30288;50.514;9.678;2024-03-06T00:46:38;48.83;;;26.60;;
29902;SDS011;30288;50.514;9.678;2024-03-06T00:48:44;53.80;;;26.20;;
29902;SDS011;30288;50.514;9.678;2024-03-06T00:50:49;47.28;;;25.65;;
29902;SDS011;30288;50.514;9.678;2024-03-06T00:52:54;51.08;;;25.70;;
29902;SDS011;30288;50.514;9.678;2024-03-06T00:54:59;52.33;;;25.13;;
29902;SDS011;30288;50.514;9.678;2024-03-06T00:57:02;58.40;;;29.00;;
29902;SDS011;30288;50.514;9.678;2024-03-06T00:59:08;52.17;;;26.60;;
29902;SDS011;30288;50.514;9.678;2024-03-06T01:01:17;55.10;;;26.80;;
29902;SDS011;30288;50.514;9.678;2024-03-06T01:03:23;55.22;;;27.83;;
29902;SDS011;30288;50.514;9.678;2024-03-06T01:05:28;54.72;;;27.10;;
29902;SDS011;30288;50.514;9.678;2024-03-06T01:07:34;59.40;;;26.95;;
29902;SDS011;30288;50.514;9.678;2024-03-06T01:09:41;53.25;;;26.02;;
29902;SDS011;30288;50.514;9.678;2024-03-06T01:11:46;57.80;;;27.02;;
29902;SDS011;30288;50.514;9.678;2024-03-06T01:13:52;54.33;;;26.92;;
29902;SDS011;30288;50.514;9.678;2024-03-06T01:15:58;49.63;;;24.70;;
29902;SDS011;30288;50.514;9.678;2024-03-06T01:18:03;51.72;;;25.02;;
29902;SDS011;30288;50.514;9.678;2024-03-06T01:20:11;47.65;;;24.73;;
29902;SDS011;30288;50.514;9.678;2024-03-06T01:22:17;46.13;;;24.75;;
29902;SDS011;30288;50.514;9.678;2024-03-06T01:24:23;52.55;;;25.25;;
29902;SDS011;30288;50.514;9.678;2024-03-06T01:26:28;54.83;;;26.83;;
29902;SDS011;30288;50.514;9.678;2024-03-06T01:28:36;51.97;;;26.13;;
29902;SDS011;30288;50.514;9.678;2024-03-06T01:30:41;51.33;;;25.58;;
29902;SDS011;30288;50.514;9.678;2024-03-06T01:32:46;48.90;;;23.70;;
29902;SDS011;30288;50.514;9.678;2024-03-06T01:34:54;42.85;;;23.00;;
29902;SDS011;30288;50.514;9.678;2024-03-06T01:36:57;52.53;;;24.83;;
29902;SDS011;30288;50.514;9.678;2024-03-06T01:39:02;48.00;;;24.45;;
29902;SDS011;30288;50.514;9.678;2024-03-06T01:41:08;50.83;;;23.52;;
29902;SDS011;30288;50.514;9.678;2024-03-06T01:43:19;51.40;;;25.05;;
29902;SDS011;30288;50.514;9.678;2024-03-06T01:47:33;51.75;;;23.60;;
29902;SDS011;30288;50.514;9.678;2024-03-06T01:49:39;53.20;;;24.70;;
29902;SDS011;30288;50.514;9.678;2024-03-06T01:51:51;46.45;;;24.92;;
29902;SDS011;30288;50.514;9.678;2024-03-06T01:54:00;48.20;;;24.15;;
29902;SDS011;30288;50.514;9.678;2024-03-06T01:56:07;45.38;;;22.88;;
29902;SDS011;30288;50.514;9.678;2024-03-06T01:58:19;47.65;;;24.98;;
29902;SDS011;30288;50.514;9.678;2024-03-06T02:00:27;50.30;;;25.38;;
29902;SDS011;30288;50.514;9.678;2024-03-06T02:02:33;45.95;;;24.23;;
29902;SDS011;30288;50.514;9.678;2024-03-06T02:04:39;47.60;;;24.55;;
29902;SDS011;30288;50.514;9.678;2024-03-06T02:06:45;48.50;;;24.02;;
29902;SDS011;30288;50.514;9.678;2024-03-06T02:08:54;44.85;;;22.45;;
29902;SDS011;30288;50.514;9.678;2024-03-06T02:10:59;48.40;;;22.83;;
29902;SDS011;30288;50.514;9.678;2024-03-06T02:13:05;55.53;;;24.20;;
29902;SDS011;30288;50.514;9.678;2024-03-06T02:15:11;45.03;;;23.25;;
29902;SDS011;30288;50.514;9.678;2024-03-06T02:17:18;47.28;;;24.52;;
29902;SDS011;30288;50.514;9.678;2024-03-06T02:19:23;43.35;;;22.45;;
29902;SDS011;30288;50.514;9.678;2024-03-06T02:21:31;48.28;;;24.75;;
29902;SDS011;30288;50.514;9.678;2024-03-06T02:23:36;47.08;;;23.65;;
29902;SDS011;30288;50.514;9.678;2024-03-06T02:25:42;45.22;;;23.00;;
29902;SDS011;30288;50.514;9.678;2024-03-06T02:27:48;51.83;;;24.75;;
29902;SDS011;30288;50.514;9.678;2024-03-06T02:29:50;47.50;;;23.23;;
29902;SDS011;30288;50.514;9.678;2024-03-06T02:31:56;48.00;;;23.38;;
29902;SDS011;30288;50.514;9.678;2024-03-06T02:34:04;42.90;;;22.73;;
29902;SDS011;30288;50.514;9.678;2024-03-06T02:36:10;47.80;;;22.77;;
29902;SDS011;30288;50.514;9.678;2024-03-06T02:38:16;45.35;;;24.02;;
29902;SDS011;30288;50.514;9.678;2024-03-06T02:40:23;50.83;;;24.48;;
29902;SDS011;30288;50.514;9.678;2024-03-06T02:42:28;47.53;;;24.88;;
29902;SDS011;30288;50.514;9.678;2024-03-06T02:44:33;47.95;;;24.73;;
29902;SDS011;30288;50.514;9.678;2024-03-06T02:46:39;49.15;;;23.90;;
29902;SDS011;30288;50.514;9.678;2024-03-06T02:48:45;44.03;;;23.23;;
29902;SDS011;30288;50.514;9.678;2024-03-06T02:50:50;47.50;;;25.23;;
29902;SDS011;30288;50.514;9.678;2024-03-06T02:52:56;53.72;;;26.13;;
29902;SDS011;30288;50.514;9.678;2024-03-06T02:55:07;51.47;;;24.85;;
29902;SDS011;30288;50.514;9.678;2024-03-06T02:57:14;47.42;;;24.08;;
29902;SDS011;30288;50.514;9.678;2024-03-06T02:59:17;45.08;;;24.67;;
29902;SDS011;30288;50.514;9.678;2024-03-06T03:01:22;51.03;;;25.80;;
29902;SDS011;30288;50.514;9.678;2024-03-06T03:03:28;54.20;;;26.42;;
29902;SDS011;30288;50.514;9.678;2024-03-06T03:05:34;52.70;;;25.60;;
29902;SDS011;30288;50.514;9.678;2024-03-06T03:07:41;51.97;;;25.35;;
29902;SDS011;30288;50.514;9.678;2024-03-06T03:09:48;52.45;;;25.58;;
29902;SDS011;30288;50.514;9.678;2024-03-06T03:11:56;48.65;;;24.75;;
29902;SDS011;30288;50.514;9.678;2024-03-06T03:14:01;47.20;;;25.35;;
29902;SDS011;30288;50.514;9.678;2024-03-06T03:16:07;51.05;;;25.10;;
29902;SDS011;30288;50.514;9.678;2024-03-06T03:18:19;48.90;;;25.00;;
29902;SDS011;30288;50.514;9.678;2024-03-06T03:20:25;54.13;;;25.70;;
29902;SDS011;30288;50.514;9.678;2024-03-06T03:22:28;43.05;;;23.48;;
29902;SDS011;30288;50.514;9.678;2024-03-06T03:24:34;47.72;;;24.10;;
29902;SDS011;30288;50.514;9.678;2024-03-06T03:26:39;43.40;;;23.13;;
29902;SDS011;30288;50.514;9.678;2024-03-06T03:28:47;48.35;;;24.42;;
29902;SDS011;30288;50.514;9.678;2024-03-06T03:30:53;48.35;;;24.60;;
29902;SDS011;30288;50.514;9.678;2024-03-06T03:32:59;51.47;;;26.23;;
29902;SDS011;30288;50.514;9.678;2024-03-06T03:35:05;53.25;;;25.70;;
29902;SDS011;30288;50.514;9.678;2024-03-06T03:37:12;48.58;;;24.20;;
29902;SDS011;30288;50.514;9.678;2024-03-06T03:39:18;52.08;;;25.98;;
29902;SDS011;30288;50.514;9.678;2024-03-06T03:41:26;52.78;;;27.60;;
29902;SDS011;30288;50.514;9.678;2024-03-06T03:43:32;49.50;;;25.67;;
29902;SDS011;30288;50.514;9.678;2024-03-06T03:45:40;49.08;;;26.10;;
29902;SDS011;30288;50.514;9.678;2024-03-06T03:47:46;51.90;;;25.25;;
29902;SDS011;30288;50.514;9.678;2024-03-06T03:49:54;45.90;;;24.50;;
29902;SDS011;30288;50.514;9.678;2024-03-06T03:52:11;48.65;;;23.30;;
29902;SDS011;30288;50.514;9.678;2024-03-06T03:54:17;43.13;;;22.55;;
29902;SDS011;30288;50.514;9.678;2024-03-06T03:56:23;54.40;;;28.52;;
29902;SDS011;30288;50.514;9.678;2024-03-06T03:58:26;47.30;;;26.02;;
29902;SDS011;30288;50.514;9.678;2024-03-06T04:00:31;51.15;;;25.67;;
29902;SDS011;30288;50.514;9.678;2024-03-06T04:02:39;52.67;;;27.48;;
29902;SDS011;30288;50.514;9.678;2024-03-06T04:04:45;48.92;;;25.48;;
29902;SDS011;30288;50.514;9.678;2024-03-06T04:06:50;52.63;;;24.88;;
29902;SDS011;30288;50.514;9.678;2024-03-06T04:11:00;46.75;;;24.83;;
29902;SDS011;30288;50.514;9.678;2024-03-06T04:13:05;46.83;;;25.35;;
29902;SDS011;30288;50.514;9.678;2024-03-06T04:15:10;50.53;;;24.42;;
29902;SDS011;30288;50.514;9.678;2024-03-06T04:17:16;42.83;;;23.58;;
29902;SDS011;30288;50.514;9.678;2024-03-06T04:19:21;48.35;;;25.30;;
29902;SDS011;30288;50.514;9.678;2024-03-06T04:21:26;44.05;;;25.58;;
29902;SDS011;30288;50.514;9.678;2024-03-06T04:23:31;52.17;;;24.45;;
29902;SDS011;30288;50.514;9.678;2024-03-06T04:25:38;46.42;;;25.10;;
29902;SDS011;30288;50.514;9.678;2024-03-06T04:27:44;49.90;;;26.05;;
29902;SDS011;30288;50.514;9.678;2024-03-06T04:29:49;50.05;;;25.58;;
29902;SDS011;30288;50.514;9.678;2024-03-06T04:31:55;44.78;;;24.17;;
29902;SDS011;30288;50.514;9.678;2024-03-06T04:34:01;47.38;;;25.48;;
29902;SDS011;30288;50.514;9.678;2024-03-06T04:36:10;49.55;;;26.77;;
29902;SDS011;30288;50.514;9.678;2024-03-06T04:38:15;51.15;;;27.73;;
29902;SDS011;30288;50.514;9.678;2024-03-06T04:40:21;53.75;;;27.98;;
29902;SDS011;30288;50.514;9.678;2024-03-06T04:42:30;48.92;;;26.35;;
29902;SDS011;30288;50.514;9.678;2024-03-06T04:44:37;44.35;;;24.83;;
29902;SDS011;30288;50.514;9.678;2024-03-06T04:46:44;49.28;;;28.10;;
29902;SDS011;30288;50.514;9.678;2024-03-06T04:48:50;54.75;;;27.35;;
29902;SDS011;30288;50.514;9.678;2024-03-06T04:50:55;50.53;;;27.20;;
29902;SDS011;30288;50.514;9.678;2024-03-06T04:53:04;53.03;;;27.67;;
29902;SDS011;30288;50.514;9.678;2024-03-06T04:55:09;62.92;;;31.23;;
29902;SDS011;30288;50.514;9.678;2024-03-06T04:57:17;60.50;;;29.73;;
29902;SDS011;30288;50.514;9.678;2024-03-06T04:59:22;50.88;;;28.70;;
29902;SDS011;30288;50.514;9.678;2024-03-06T05:01:28;60.13;;;31.13;;
29902;SDS011;30288;50.514;9.678;2024-03-06T05:03:33;52.50;;;27.88;;
29902;SDS011;30288;50.514;9.678;2024-03-06T05:05:55;60.13;;;30.25;;
29902;SDS011;30288;50.514;9.678;2024-03-06T05:08:18;57.53;;;29.77;;
29902;SDS011;30288;50.514;9.678;2024-03-06T05:10:37;62.95;;;31.40;;
29902;SDS011;30288;50.514;9.678;2024-03-06T05:12:56;63.38;;;31.23;;
29902;SDS011;30288;50.514;9.678;2024-03-06T05:15:15;59.60;;;30.85;;
29902;SDS011;30288;50.514;9.678;2024-03-06T05:17:35;57.45;;;29.52;;
29902;SDS011;30288;50.514;9.678;2024-03-06T05:19:54;58.40;;;30.10;;
29902;SDS011;30288;50.514;9.678;2024-03-06T05:22:14;55.65;;;30.33;;
29902;SDS011;30288;50.514;9.678;2024-03-06T05:24:37;58.45;;;29.95;;
29902;SDS011;30288;50.514;9.678;2024-03-06T05:26:56;60.95;;;30.38;;
29902;SDS011;30288;50.514;9.678;2024-03-06T05:29:16;55.90;;;30.17;;
29902;SDS011;30288;50.514;9.678;2024-03-06T05:31:36;58.03;;;29.85;;
29902;SDS011;30288;50.514;9.678;2024-03-06T05:33:55;66.65;;;32.55;;
29902;SDS011;30288;50.514;9.678;2024-03-06T05:36:16;67.38;;;31.63;;
29902;SDS011;30288;50.514;9.678;2024-03-06T05:38:36;74.47;;;37.08;;
29902;SDS011;30288;50.514;9.678;2024-03-06T05:40:56;69.63;;;33.20;;
29902;SDS011;30288;50.514;9.678;2024-03-06T05:43:15;83.68;;;38.38;;
29902;SDS011;30288;50.514;9.678;2024-03-06T05:45:35;85.93;;;38.83;;
29902;SDS011;30288;50.514;9.678;2024-03-06T05:47:54;86.63;;;40.00;;
29902;SDS011;30288;50.514;9.678;2024-03-06T05:50:13;88.97;;;41.15;;
29902;SDS011;30288;50.514;9.678;2024-03-06T05:52:34;82.03;;;39.67;;
29902;SDS011;30288;50.514;9.678;2024-03-06T05:54:54;83.55;;;39.53;;
29902;SDS011;30288;50.514;9.678;2024-03-06T05:57:16;86.75;;;40.92;;
29902;SDS011;30288;50.514;9.678;2024-03-06T05:59:35;81.20;;;40.00;;
29902;SDS011;30288;50.514;9.678;2024-03-06T06:01:41;90.55;;;44.25;;
29902;SDS011;30288;50.514;9.678;2024-03-06T06:03:46;78.90;;;39.22;;
29902;SDS011;30288;50.514;9.678;2024-03-06T06:05:52;90.85;;;43.47;;
29902;SDS011;30288;50.514;9.678;2024-03-06T06:07:57;83.63;;;42.60;;
29902;SDS011;30288;50.514;9.678;2024-03-06T06:10:03;95.85;;;45.65;;
29902;SDS011;30288;50.514;9.678;2024-03-06T06:12:11;81.45;;;42.25;;
29902;SDS011;30288;50.514;9.678;2024-03-06T06:14:19;88.22;;;42.10;;
29902;SDS011;30288;50.514;9.678;2024-03-06T06:16:24;89.57;;;42.55;;
29902;SDS011;30288;50.514;9.678;2024-03-06T06:18:30;83.53;;;41.83;;
29902;SDS011;30288;50.514;9.678;2024-03-06T06:20:40;78.72;;;39.90;;
29902;SDS011;30288;50.514;9.678;2024-03-06T06:22:46;88.55;;;41.28;;
29902;SDS011;30288;50.514;9.678;2024-03-06T06:24:51;84.18;;;42.70;;
29902;SDS011;30288;50.514;9.678;2024-03-06T06:26:57;88.50;;;42.92;;
29902;SDS011;30288;50.514;9.678;2024-03-06T06:29:03;87.80;;;43.65;;
29902;SDS011;30288;50.514;9.678;2024-03-06T06:31:12;77.10;;;39.53;;
29902;SDS011;30288;50.514;9.678;2024-03-06T06:33:18;82.82;;;42.13;;
29902;SDS011;30288;50.514;9.678;2024-03-06T06:35:21;72.40;;;38.63;;
29902;SDS011;30288;50.514;9.678;2024-03-06T06:37:28;70.60;;;34.75;;
29902;SDS011;30288;50.514;9.678;2024-03-06T06:39:34;62.83;;;33.13;;
29902;SDS011;30288;50.514;9.678;2024-03-06T06:41:39;57.95;;;31.63;;
29902;SDS011;30288;50.514;9.678;2024-03-06T06:43:44;57.55;;;30.83;;
29902;SDS011;30288;50.514;9.678;2024-03-06T06:45:47;60.75;;;32.38;;
29902;SDS011;30288;50.514;9.678;2024-03-06T06:47:57;59.55;;;32.45;;
29902;SDS011;30288;50.514;9.678;2024-03-06T06:50:03;59.60;;;32.40;;
29902;SDS011;30288;50.514;9.678;2024-03-06T06:52:11;65.70;;;33.83;;
29902;SDS011;30288;50.514;9.678;2024-03-06T06:54:14;62.78;;;33.20;;
29902;SDS011;30288;50.514;9.678;2024-03-06T06:56:19;67.45;;;34.80;;
29902;SDS011;30288;50.514;9.678;2024-03-06T06:58:25;66.22;;;34.75;;
29902;SDS011;30288;50.514;9.678;2024-03-06T07:00:31;66.03;;;35.53;;
29902;SDS011;30288;50.514;9.678;2024-03-06T07:02:38;72.95;;;36.97;;
29902;SDS011;30288;50.514;9.678;2024-03-06T07:04:46;75.35;;;39.35;;
29902;SDS011;30288;50.514;9.678;2024-03-06T07:06:52;81.72;;;40.95;;
29902;SDS011;30288;50.514;9.678;2024-03-06T07:08:57;82.85;;;44.08;;
29902;SDS011;30288;50.514;9.678;2024-03-06T07:11:02;90.57;;;45.58;;
29902;SDS011;30288;50.514;9.678;2024-03-06T07:13:08;98.25;;;47.45;;
29902;SDS011;30288;50.514;9.678;2024-03-06T07:15:15;88.70;;;46.90;;
29902;SDS011;30288;50.514;9.678;2024-03-06T07:17:20;96.13;;;49.17;;
29902;SDS011;30288;50.514;9.678;2024-03-06T07:19:25;94.95;;;48.65;;
29902;SDS011;30288;50.514;9.678;2024-03-06T07:21:34;94.18;;;48.20;;
29902;SDS011;30288;50.514;9.678;2024-03-06T07:23:39;92.43;;;48.28;;
29902;SDS011;30288;50.514;9.678;2024-03-06T07:25:45;85.35;;;46.97;;
29902;SDS011;30288;50.514;9.678;2024-03-06T07:27:50;77.20;;;43.97;;
29902;SDS011;30288;50.514;9.678;2024-03-06T07:29:55;84.70;;;43.05;;
29902;SDS011;30288;50.514;9.678;2024-03-06T07:32:00;77.50;;;43.00;;
29902;SDS011;30288;50.514;9.678;2024-03-06T07:34:06;77.85;;;41.35;;
29902;SDS011;30288;50.514;9.678;2024-03-06T07:38:17;62.70;;;36.47;;
29902;SDS011;30288;50.514;9.678;2024-03-06T07:40:22;69.38;;;39.33;;
29902;SDS011;30288;50.514;9.678;2024-03-06T07:42:28;67.53;;;39.70;;
29902;SDS011;30288;50.514;9.678;2024-03-06T07:44:33;66.03;;;37.95;;
29902;SDS011;30288;50.514;9.678;2024-03-06T07:46:39;63.70;;;38.08;;
29902;SDS011;30288;50.514;9.678;2024-03-06T07:48:47;61.97;;;37.45;;
29902;SDS011;30288;50.514;9.678;2024-03-06T07:50:53;59.47;;;37.03;;
29902;SDS011;30288;50.514;9.678;2024-03-06T07:52:58;65.03;;;36.50;;
29902;SDS011;30288;50.514;9.678;2024-03-06T07:55:07;57.95;;;34.63;;
29902;SDS011;30288;50.514;9.678;2024-03-06T07:57:12;54.20;;;33.97;;
29902;SDS011;30288;50.514;9.678;2024-03-06T07:59:17;54.13;;;32.53;;
29902;SDS011;30288;50.514;9.678;2024-03-06T08:01:23;52.35;;;30.73;;
29902;SDS011;30288;50.514;9.678;2024-03-06T08:03:33;49.70;;;31.38;;
29902;SDS011;30288;50.514;9.678;2024-03-06T08:05:38;51.75;;;31.73;;
29902;SDS011;30288;50.514;9.678;2024-03-06T08:07:45;44.35;;;29.63;;
29902;SDS011;30288;50.514;9.678;2024-03-06T08:09:50;47.25;;;30.77;;
29902;SDS011;30288;50.514;9.678;2024-03-06T08:11:58;46.80;;;31.65;;
29902;SDS011;30288;50.514;9.678;2024-03-06T08:14:05;49.10;;;30.52;;
29902;SDS011;30288;50.514;9.678;2024-03-06T08:16:11;44.75;;;30.38;;
29902;SDS011;30288;50.514;9.678;2024-03-06T08:18:16;46.78;;;30.58;;
29902;SDS011;30288;50.514;9.678;2024-03-06T08:22:26;46.03;;;29.75;;
29902;SDS011;30288;50.514;9.678;2024-03-06T08:24:32;46.67;;;31.20;;
29902;SDS011;30288;50.514;9.678;2024-03-06T08:26:38;47.17;;;30.27;;
29902;SDS011;30288;50.514;9.678;2024-03-06T08:28:43;46.10;;;30.08;;
29902;SDS011;30288;50.514;9.678;2024-03-06T08:30:51;49.10;;;31.50;;
29902;SDS011;30288;50.514;9.678;2024-03-06T08:32:58;48.70;;;31.73;;
29902;SDS011;30288;50.514;9.678;2024-03-06T08:35:04;48.28;;;32.05;;
29902;SDS011;30288;50.514;9.678;2024-03-06T08:37:20;51.65;;;33.83;;
29902;SDS011;30288;50.514;9.678;2024-03-06T08:39:25;53.88;;;33.33;;
29902;SDS011;30288;50.514;9.678;2024-03-06T08:41:31;48.10;;;32.47;;
29902;SDS011;30288;50.514;9.678;2024-03-06T08:43:34;50.50;;;31.80;;
29902;SDS011;30288;50.514;9.678;2024-03-06T08:45:42;45.92;;;31.00;;
29902;SDS011;30288;50.514;9.678;2024-03-06T08:47:48;48.40;;;31.83;;
29902;SDS011;30288;50.514;9.678;2024-03-06T08:49:55;49.05;;;32.35;;
29902;SDS011;30288;50.514;9.678;2024-03-06T08:51:58;47.95;;;32.22;;
29902;SDS011;30288;50.514;9.678;2024-03-06T08:54:03;46.15;;;31.00;;
29902;SDS011;30288;50.514;9.678;2024-03-06T08:56:07;45.60;;;30.98;;
29902;SDS011;30288;50.514;9.678;2024-03-06T08:58:15;46.28;;;30.23;;
29902;SDS011;30288;50.514;9.678;2024-03-06T09:00:22;42.72;;;30.23;;
29902;SDS011;30288;50.514;9.678;2024-03-06T09:02:30;42.20;;;28.42;;
29902;SDS011;30288;50.514;9.678;2024-03-06T09:04:36;44.58;;;28.58;;
29902;SDS011;30288;50.514;9.678;2024-03-06T09:06:41;43.85;;;30.35;;
29902;SDS011;30288;50.514;9.678;2024-03-06T09:08:47;46.88;;;29.67;;
29902;SDS011;30288;50.514;9.678;2024-03-06T09:10:53;44.58;;;27.63;;
29902;SDS011;30288;50.514;9.678;2024-03-06T09:13:01;42.72;;;27.67;;
29902;SDS011;30288;50.514;9.678;2024-03-06T09:15:07;42.15;;;28.35;;
29902;SDS011;30288;50.514;9.678;2024-03-06T09:17:13;41.63;;;28.60;;
29902;SDS011;30288;50.514;9.678;2024-03-06T09:19:21;43.85;;;28.52;;
29902;SDS011;30288;50.514;9.678;2024-03-06T09:21:27;44.90;;;31.33;;
29902;SDS011;30288;50.514;9.678;2024-03-06T09:23:33;48.47;;;31.70;;
29902;SDS011;30288;50.514;9.678;2024-03-06T09:25:39;46.83;;;29.50;;
29902;SDS011;30288;50.514;9.678;2024-03-06T09:27:45;44.08;;;29.00;;
29902;SDS011;30288;50.514;9.678;2024-03-06T09:29:48;43.97;;;28.50;;
29902;SDS011;30288;50.514;9.678;2024-03-06T09:31:53;47.47;;;27.50;;
29902;SDS011;30288;50.514;9.678;2024-03-06T09:33:59;51.53;;;30.80;;
29902;SDS011;30288;50.514;9.678;2024-03-06T09:36:09;44.50;;;29.15;;
29902;SDS011;30288;50.514;9.678;2024-03-06T09:38:17;55.17;;;32.75;;
29902;SDS011;30288;50.514;9.678;2024-03-06T09:40:25;58.38;;;33.20;;
29902;SDS011;30288;50.514;9.678;2024-03-06T09:42:32;51.60;;;32.05;;
29902;SDS011;30288;50.514;9.678;2024-03-06T09:44:35;59.17;;;34.70;;
29902;SDS011;30288;50.514;9.678;2024-03-06T09:46:41;48.78;;;33.63;;
29902;SDS011;30288;50.514;9.678;2024-03-06T09:48:49;52.33;;;33.58;;
29902;SDS011;30288;50.514;9.678;2024-03-06T09:51:00;53.28;;;33.47;;
29902;SDS011;30288;50.514;9.678;2024-03-06T09:53:10;52.15;;;34.30;;
29902;SDS011;30288;50.514;9.678;2024-03-06T09:55:20;44.28;;;27.70;;
29902;SDS011;30288;50.514;9.678;2024-03-06T09:57:23;49.38;;;32.92;;
29902;SDS011;30288;50.514;9.678;2024-03-06T09:59:28;52.72;;;32.75;;
29902;SDS011;30288;50.514;9.678;2024-03-06T10:01:35;51.95;;;33.40;;
29902;SDS011;30288;50.514;9.678;2024-03-06T10:03:51;48.83;;;33.30;;
29902;SDS011;30288;50.514;9.678;2024-03-06T10:05:56;47.03;;;32.75;;
29902;SDS011;30288;50.514;9.678;2024-03-06T10:08:06;46.35;;;31.63;;
29902;SDS011;30288;50.514;9.678;2024-03-06T10:10:18;47.60;;;31.65;;
29902;SDS011;30288;50.514;9.678;2024-03-06T10:12:21;48.22;;;31.92;;
29902;SDS011;30288;50.514;9.678;2024-03-06T10:14:27;48.75;;;32.60;;
29902;SDS011;30288;50.514;9.678;2024-03-06T10:16:35;48.65;;;32.50;;
29902;SDS011;30288;50.514;9.678;2024-03-06T10:18:40;47.47;;;32.60;;
29902;SDS011;30288;50.514;9.678;2024-03-06T10:20:46;48.03;;;31.45;;
29902;SDS011;30288;50.514;9.678;2024-03-06T10:22:52;45.72;;;31.40;;
29902;SDS011;30288;50.514;9.678;2024-03-06T10:25:02;49.53;;;33.45;;
29902;SDS011;30288;50.514;9.678;2024-03-06T10:27:14;51.40;;;33.28;;
29902;SDS011;30288;50.514;9.678;2024-03-06T10:29:21;45.42;;;32.17;;
29902;SDS011;30288;50.514;9.678;2024-03-06T10:31:28;46.10;;;31.23;;
29902;SDS011;30288;50.514;9.678;2024-03-06T10:33:34;44.72;;;32.25;;
29902;SDS011;30288;50.514;9.678;2024-03-06T10:35:40;48.28;;;32.63;;
29902;SDS011;30288;50.514;9.678;2024-03-06T10:37:49;47.60;;;32.67;;
29902;SDS011;30288;50.514;9.678;2024-03-06T10:39:56;49.53;;;31.00;;
29902;SDS011;30288;50.514;9.678;2024-03-06T10:42:10;44.50;;;30.55;;
29902;SDS011;30288;50.514;9.678;2024-03-06T10:44:20;44.20;;;31.38;;
29902;SDS011;30288;50.514;9.678;2024-03-06T10:46:24;46.97;;;31.65;;
29902;SDS011;30288;50.514;9.678;2024-03-06T10:48:32;48.42;;;34.08;;
29902;SDS011;30288;50.514;9.678;2024-03-06T10:50:40;52.90;;;33.45;;
29902;SDS011;30288;50.514;9.678;2024-03-06T10:52:46;50.67;;;32.42;;
29902;SDS011;30288;50.514;9.678;2024-03-06T10:54:53;49.38;;;31.98;;
29902;SDS011;30288;50.514;9.678;2024-03-06T10:57:01;49.47;;;31.20;;
29902;SDS011;30288;50.514;9.678;2024-03-06T10:59:10;48.10;;;29.88;;
29902;SDS011;30288;50.514;9.678;2024-03-06T11:01:17;44.08;;;30.48;;
29902;SDS011;30288;50.514;9.678;2024-03-06T11:03:23;42.63;;;28.52;;
29902;SDS011;30288;50.514;9.678;2024-03-06T11:05:32;39.47;;;26.33;;
29902;SDS011;30288;50.514;9.678;2024-03-06T11:07:41;36.88;;;26.30;;
29902;SDS011;30288;50.514;9.678;2024-03-06T11:09:47;39.53;;;25.98;;
29902;SDS011;30288;50.514;9.678;2024-03-06T11:11:53;39.88;;;26.33;;
29902;SDS011;30288;50.514;9.678;2024-03-06T11:14:00;35.17;;;25.88;;
29902;SDS011;30288;50.514;9.678;2024-03-06T11:16:13;42.00;;;27.23;;
29902;SDS011;30288;50.514;9.678;2024-03-06T11:20:49;39.80;;;27.65;;
29902;SDS011;30288;50.514;9.678;2024-03-06T11:23:04;38.42;;;25.88;;
29902;SDS011;30288;50.514;9.678;2024-03-06T11:28:08;37.53;;;26.15;;
29902;SDS011;30288;50.514;9.678;2024-03-06T11:30:18;44.25;;;28.67;;
29902;SDS011;30288;50.514;9.678;2024-03-06T11:32:28;42.75;;;28.67;;
29902;SDS011;30288;50.514;9.678;2024-03-06T11:34:34;43.85;;;29.42;;
29902;SDS011;30288;50.514;9.678;2024-03-06T11:36:40;40.83;;;28.10;;
29902;SDS011;30288;50.514;9.678;2024-03-06T11:38:56;45.80;;;29.95;;
29902;SDS011;30288;50.514;9.678;2024-03-06T11:41:05;43.15;;;30.17;;
29902;SDS011;30288;50.514;9.678;2024-03-06T11:43:23;46.35;;;29.98;;
29902;SDS011;30288;50.514;9.678;2024-03-06T11:45:30;45.05;;;30.30;;
29902;SDS011;30288;50.514;9.678;2024-03-06T11:50:14;47.70;;;30.80;;
29902;SDS011;30288;50.514;9.678;2024-03-06T11:52:20;44.92;;;30.23;;
29902;SDS011;30288;50.514;9.678;2024-03-06T11:54:26;48.05;;;30.90;;
29902;SDS011;30288;50.514;9.678;2024-03-06T11:56:32;44.45;;;30.13;;
29902;SDS011;30288;50.514;9.678;2024-03-06T11:58:38;43.30;;;29.10;;
29902;SDS011;30288;50.514;9.678;2024-03-06T12:00:43;43.50;;;28.63;;
29902;SDS011;30288;50.514;9.678;2024-03-06T12:02:49;46.03;;;29.45;;
29902;SDS011;30288;50.514;9.678;2024-03-06T12:05:01;46.53;;;28.85;;
29902;SDS011;30288;50.514;9.678;2024-03-06T12:07:08;45.70;;;27.45;;
29902;SDS011;30288;50.514;9.678;2024-03-06T12:09:15;39.25;;;27.10;;
29902;SDS011;30288;50.514;9.678;2024-03-06T12:11:21;41.70;;;28.92;;
29902;SDS011;30288;50.514;9.678;2024-03-06T12:13:27;45.35;;;29.83;;
29902;SDS011;30288;50.514;9.678;2024-03-06T12:15:37;42.70;;;30.15;;
29902;SDS011;30288;50.514;9.678;2024-03-06T12:17:44;48.75;;;30.63;;
29902;SDS011;30288;50.514;9.678;2024-03-06T12:19:54;44.38;;;29.20;;
29902;SDS011;30288;50.514;9.678;2024-03-06T12:22:03;45.28;;;29.88;;
29902;SDS011;30288;50.514;9.678;2024-03-06T12:24:08;43.45;;;30.25;;
29902;SDS011;30288;50.514;9.678;2024-03-06T12:26:14;42.95;;;29.33;;
29902;SDS011;30288;50.514;9.678;2024-03-06T12:28:23;45.42;;;29.27;;
29902;SDS011;30288;50.514;9.678;2024-03-06T12:30:28;39.35;;;27.33;;
29902;SDS011;30288;50.514;9.678;2024-03-06T12:32:41;31.65;;;20.48;;
29902;SDS011;30288;50.514;9.678;2024-03-06T12:34:56;40.97;;;26.33;;
29902;SDS011;30288;50.514;9.678;2024-03-06T12:37:10;35.70;;;25.83;;
29902;SDS011;30288;50.514;9.678;2024-03-06T12:39:16;39.42;;;24.85;;
29902;SDS011;30288;50.514;9.678;2024-03-06T12:41:24;38.00;;;25.85;;
29902;SDS011;30288;50.514;9.678;2024-03-06T12:43:30;37.70;;;26.73;;